Dades de l'estació automàtica la Tosa d'Alp (2.478 m)
Resum diari
20:00 TU| Temperatura mitjana | 1.3 °C | |
|---|---|---|
| Temperatura màxima | 3.9 °C | 14:17 TU |
| Temperatura mínima | -0.3 °C | 6:04 TU |
| Humitat relativa mitjana | 90% | |
| Ratxa màxima del vent (10 m) | 51.1 km/h - 285º | 3:38 TU |
| Irradiació solar global | 19.4 MJ/m2 | |
El tram horari està expressat en Temps Universal (TU). Cal sumar una hora en horari d'hivern i dues en horari d'estiu per passar a l'hora oficial.
la Tosa d'Alp (2.478 m)
| Municipi | Alp |
|---|---|
| Comarca | Cerdanya |
| Altitud | 2478 m |
| Data alta | 04.09.2014 |
| Estat actual | Operativa |
| Període TU |
TM °C |
TX °C |
TN °C |
HRM % |
VVM (10 m) km/h |
DVM (10 m) graus |
VVX (10 m) km/h |
RS W/m2 |
|---|---|---|---|---|---|---|---|---|
| 00:00 - 00:30 | 0.3 | 0.3 | 0.2 | 100 | (s/d) | (s/d) | (s/d) | 0 |
| 00:30 - 01:00 | 0.3 | 0.4 | 0.2 | 100 | (s/d) | (s/d) | (s/d) | 0 |
| 01:00 - 01:30 | 0.2 | 0.3 | 0.1 | 100 | (s/d) | (s/d) | (s/d) | 0 |
| 01:30 - 02:00 | 0.1 | 0.2 | 0.1 | 100 | (s/d) | (s/d) | (s/d) | 0 |
| 02:00 - 02:30 | 0.0 | 0.1 | 0.0 | 100 | (s/d) | (s/d) | 38.2 | 0 |
| 02:30 - 03:00 | -0.1 | 0.0 | -0.2 | 100 | 28.4 | 281 | 38.5 | 0 |
| 03:00 - 03:30 | -0.1 | -0.1 | -0.1 | 100 | 32.0 | 285 | 50.0 | 0 |
| 03:30 - 04:00 | -0.1 | -0.1 | -0.1 | 100 | 31.7 | 290 | 51.1 | 0 |
| 04:00 - 04:30 | -0.1 | -0.1 | -0.1 | 100 | 30.2 | 283 | 43.2 | 0 |
| 04:30 - 05:00 | -0.2 | -0.2 | -0.2 | 100 | 26.6 | 279 | 39.6 | 31 |
| 05:00 - 05:30 | -0.2 | -0.2 | -0.2 | 100 | 20.9 | 274 | 33.1 | 131 |
| 05:30 - 06:00 | -0.2 | -0.2 | -0.3 | 100 | 18.4 | 266 | 25.6 | 217 |
| 06:00 - 06:30 | -0.2 | -0.2 | -0.3 | 98 | 17.6 | 253 | 25.9 | 248 |
| 06:30 - 07:00 | 0.0 | 0.2 | -0.2 | 91 | 14.8 | 240 | 21.6 | 288 |
| 07:00 - 07:30 | 0.3 | 0.5 | 0.2 | 81 | 13.3 | 225 | 20.2 | 373 |
| 07:30 - 08:00 | 0.7 | 1.0 | 0.5 | 74 | 14.4 | 223 | 19.8 | 470 |
| 08:00 - 08:30 | 1.3 | 1.5 | 1.0 | 83 | 13.0 | 203 | 25.9 | 517 |
| 08:30 - 09:00 | 1.8 | 2.4 | 1.1 | 91 | 11.2 | 177 | 19.1 | 534 |
| 09:00 - 09:30 | 1.8 | 2.1 | 1.4 | 92 | 12.6 | 187 | 24.8 | 730 |
| 09:30 - 10:00 | 2.0 | 2.6 | 1.5 | 94 | 12.6 | 197 | 25.6 | 709 |
| 10:00 - 10:30 | 2.5 | 3.0 | 1.9 | 93 | 14.0 | 208 | 32.8 | 808 |
| 10:30 - 11:00 | 2.0 | 2.3 | 1.6 | (s/d) | 10.1 | 241 | 22.3 | 595 |
| 11:00 - 11:30 | 2.3 | 2.7 | 1.8 | 94 | 11.2 | 248 | 25.6 | 768 |
| 11:30 - 12:00 | 2.0 | 2.1 | 1.7 | 93 | 14.8 | 233 | 25.2 | 328 |
| 12:00 - 12:30 | 2.2 | 2.7 | 1.9 | 87 | 12.6 | 236 | 25.6 | 319 |
| 12:30 - 13:00 | 2.5 | 3.1 | 2.2 | 82 | 10.1 | 237 | 20.2 | 300 |
| 13:00 - 13:30 | 2.8 | 3.4 | 2.3 | 80 | 13.7 | 223 | 28.1 | 339 |
| 13:30 - 14:00 | 2.8 | 3.1 | 2.5 | 77 | 12.2 | 216 | 23.8 | 254 |
| 14:00 - 14:30 | 3.3 | 3.9 | 3.0 | 76 | 15.1 | 212 | 28.8 | 497 |
| 14:30 - 15:00 | 3.1 | 3.4 | 2.8 | 71 | 17.3 | 229 | 27.4 | 537 |
| 15:00 - 15:30 | 3.5 | 3.7 | 3.1 | 65 | 19.1 | 226 | 35.3 | 618 |
| 15:30 - 16:00 | 3.4 | 3.6 | 3.1 | 69 | 16.6 | 230 | 29.2 | 419 |
| 16:00 - 16:30 | 3.2 | 3.7 | 3.0 | 71 | 14.4 | 221 | 26.6 | 303 |
| 16:30 - 17:00 | 3.4 | 3.9 | 3.0 | 69 | 17.3 | 224 | 28.8 | 267 |
| 17:00 - 17:30 | 2.7 | 3.3 | 2.2 | 80 | 22.3 | 206 | 35.6 | 105 |
| 17:30 - 18:00 | 1.6 | 2.1 | 1.3 | 98 | 17.3 | 210 | 32.0 | 26 |
| 18:00 - 18:30 | 0.9 | 1.3 | 0.5 | 100 | 22.0 | 240 | 38.5 | 13 |
| 18:30 - 19:00 | 0.7 | 1.2 | 0.5 | 100 | 20.2 | 228 | 40.7 | 9 |
| 19:00 - 19:30 | 0.4 | 0.5 | 0.2 | 100 | 20.5 | 225 | 41.0 | 1 |
| 19:30 - 20:00 | 0.1 | 0.4 | -0.2 | 100 | 18.7 | 247 | 34.9 | 0 |
| 20:00 - 20:30 | -0.1 | -0.1 | -0.2 | 100 | 14.8 | 236 | 29.9 | 0 |
Les dades en taronja només han passat un control de qualitat automàtic. Resta pendent la seva validació definitiva.